sensor_id;sensor_type;location;lat;lon;timestamp;pressure;altitude;pressure_sealevel;temperature;humidity
4972;BME280;2501;51.214;6.768;2024-01-30T00:01:41;102451.94;;;8.31;100.00
4972;BME280;2501;51.214;6.768;2024-01-30T00:04:09;102459.78;;;8.31;100.00
4972;BME280;2501;51.214;6.768;2024-01-30T00:06:38;102457.91;;;8.27;100.00
4972;BME280;2501;51.214;6.768;2024-01-30T00:09:06;102457.06;;;8.28;100.00
4972;BME280;2501;51.214;6.768;2024-01-30T00:11:35;102459.88;;;8.33;100.00
4972;BME280;2501;51.214;6.768;2024-01-30T00:14:04;102456.25;;;8.29;100.00
4972;BME280;2501;51.214;6.768;2024-01-30T00:16:35;102454.41;;;8.27;100.00
4972;BME280;2501;51.214;6.768;2024-01-30T00:19:04;102461.41;;;8.28;100.00
4972;BME280;2501;51.214;6.768;2024-01-30T00:21:33;102455.97;;;8.23;100.00
4972;BME280;2501;51.214;6.768;2024-01-30T00:24:02;102455.16;;;8.24;100.00
4972;BME280;2501;51.214;6.768;2024-01-30T00:26:31;102461.13;;;8.22;100.00
4972;BME280;2501;51.214;6.768;2024-01-30T00:28:59;102451.38;;;8.18;100.00
4972;BME280;2501;51.214;6.768;2024-01-30T00:31:28;102454.75;;;8.15;100.00
4972;BME280;2501;51.214;6.768;2024-01-30T00:33:59;102452.13;;;8.15;100.00
4972;BME280;2501;51.214;6.768;2024-01-30T00:36:27;102451.97;;;8.11;100.00
4972;BME280;2501;51.214;6.768;2024-01-30T00:38:56;102456.22;;;8.09;100.00
4972;BME280;2501;51.214;6.768;2024-01-30T00:41:24;102447.50;;;8.08;100.00
4972;BME280;2501;51.214;6.768;2024-01-30T00:43:53;102448.25;;;8.06;100.00
4972;BME280;2501;51.214;6.768;2024-01-30T00:46:21;102443.78;;;8.03;100.00
4972;BME280;2501;51.214;6.768;2024-01-30T00:48:49;102448.03;;;8.01;100.00
4972;BME280;2501;51.214;6.768;2024-01-30T00:51:21;102446.25;;;8.00;100.00
4972;BME280;2501;51.214;6.768;2024-01-30T00:53:49;102441.75;;;7.96;100.00
4972;BME280;2501;51.214;6.768;2024-01-30T00:56:19;102446.06;;;7.95;100.00
4972;BME280;2501;51.214;6.768;2024-01-30T00:58:48;102442.44;;;7.92;100.00
4972;BME280;2501;51.214;6.768;2024-01-30T01:01:16;102444.06;;;7.90;100.00
4972;BME280;2501;51.214;6.768;2024-01-30T01:03:45;102446.56;;;7.87;100.00
4972;BME280;2501;51.214;6.768;2024-01-30T01:06:13;102445.78;;;7.89;100.00
4972;BME280;2501;51.214;6.768;2024-01-30T01:08:44;102448.19;;;7.85;100.00
4972;BME280;2501;51.214;6.768;2024-01-30T01:11:13;102452.47;;;7.83;100.00
4972;BME280;2501;51.214;6.768;2024-01-30T01:13:41;102445.44;;;7.82;100.00
4972;BME280;2501;51.214;6.768;2024-01-30T01:16:10;102454.09;;;7.81;100.00
4972;BME280;2501;51.214;6.768;2024-01-30T01:18:38;102453.19;;;7.79;100.00
4972;BME280;2501;51.214;6.768;2024-01-30T01:21:07;102452.81;;;7.71;100.00
4972;BME280;2501;51.214;6.768;2024-01-30T01:23:35;102457.97;;;7.69;100.00
4972;BME280;2501;51.214;6.768;2024-01-30T01:26:07;102457.22;;;7.72;100.00
4972;BME280;2501;51.214;6.768;2024-01-30T01:28:36;102457.28;;;7.74;100.00
4972;BME280;2501;51.214;6.768;2024-01-30T01:31:04;102450.50;;;7.77;100.00
4972;BME280;2501;51.214;6.768;2024-01-30T01:33:33;102447.94;;;7.79;100.00
4972;BME280;2501;51.214;6.768;2024-01-30T01:36:03;102447.81;;;7.76;100.00
4972;BME280;2501;51.214;6.768;2024-01-30T01:38:32;102446.09;;;7.76;100.00
4972;BME280;2501;51.214;6.768;2024-01-30T01:41:00;102446.84;;;7.74;100.00
4972;BME280;2501;51.214;6.768;2024-01-30T01:43:31;102443.28;;;7.72;100.00
4972;BME280;2501;51.214;6.768;2024-01-30T01:46:00;102444.09;;;7.71;100.00
4972;BME280;2501;51.214;6.768;2024-01-30T01:48:28;102448.41;;;7.70;100.00
4972;BME280;2501;51.214;6.768;2024-01-30T01:50:57;102436.94;;;7.66;100.00
4972;BME280;2501;51.214;6.768;2024-01-30T01:53:26;102439.69;;;7.69;100.00
4972;BME280;2501;51.214;6.768;2024-01-30T01:55:55;102441.47;;;7.71;100.00
4972;BME280;2501;51.214;6.768;2024-01-30T01:58:26;102439.63;;;7.68;100.00
4972;BME280;2501;51.214;6.768;2024-01-30T02:00:59;102438.59;;;7.64;100.00
4972;BME280;2501;51.214;6.768;2024-01-30T02:03:28;102442.16;;;7.66;100.00
4972;BME280;2501;51.214;6.768;2024-01-30T02:05:56;102440.38;;;7.65;100.00
4972;BME280;2501;51.214;6.768;2024-01-30T02:08:25;102436.88;;;7.65;100.00
4972;BME280;2501;51.214;6.768;2024-01-30T02:10:54;102430.75;;;7.64;100.00
4972;BME280;2501;51.214;6.768;2024-01-30T02:13:23;102428.06;;;7.63;100.00
4972;BME280;2501;51.214;6.768;2024-01-30T02:15:51;102430.66;;;7.61;100.00
4972;BME280;2501;51.214;6.768;2024-01-30T02:18:22;102428.03;;;7.61;100.00
4972;BME280;2501;51.214;6.768;2024-01-30T02:20:53;102429.69;;;7.59;100.00
4972;BME280;2501;51.214;6.768;2024-01-30T02:23:24;102421.84;;;7.59;100.00
4972;BME280;2501;51.214;6.768;2024-01-30T02:25:54;102417.59;;;7.61;100.00
4972;BME280;2501;51.214;6.768;2024-01-30T02:28:22;102415.38;;;7.71;100.00
4972;BME280;2501;51.214;6.768;2024-01-30T02:30:50;102419.47;;;7.65;100.00
4972;BME280;2501;51.214;6.768;2024-01-30T02:33:19;102411.94;;;7.72;100.00
4972;BME280;2501;51.214;6.768;2024-01-30T02:35:47;102417.00;;;7.68;100.00
4972;BME280;2501;51.214;6.768;2024-01-30T02:38:16;102409.09;;;7.67;100.00
4972;BME280;2501;51.214;6.768;2024-01-30T02:40:50;102411.56;;;7.64;100.00
4972;BME280;2501;51.214;6.768;2024-01-30T02:43:18;102404.56;;;7.63;100.00
4972;BME280;2501;51.214;6.768;2024-01-30T02:45:47;102405.38;;;7.62;100.00
4972;BME280;2501;51.214;6.768;2024-01-30T02:48:15;102403.81;;;7.65;100.00
4972;BME280;2501;51.214;6.768;2024-01-30T02:50:43;102406.44;;;7.65;100.00
4972;BME280;2501;51.214;6.768;2024-01-30T02:53:12;102405.75;;;7.69;100.00
4972;BME280;2501;51.214;6.768;2024-01-30T02:55:40;102403.97;;;7.68;100.00
4972;BME280;2501;51.214;6.768;2024-01-30T02:58:11;102403.81;;;7.65;100.00
4972;BME280;2501;51.214;6.768;2024-01-30T03:00:40;102398.88;;;7.72;100.00
4972;BME280;2501;51.214;6.768;2024-01-30T03:03:09;102397.09;;;7.71;100.00
4972;BME280;2501;51.214;6.768;2024-01-30T03:05:37;102393.66;;;7.72;100.00
4972;BME280;2501;51.214;6.768;2024-01-30T03:08:06;102395.56;;;7.76;100.00
4972;BME280;2501;51.214;6.768;2024-01-30T03:10:34;102392.75;;;7.71;100.00
4972;BME280;2501;51.214;6.768;2024-01-30T03:13:03;102386.63;;;7.71;100.00
4972;BME280;2501;51.214;6.768;2024-01-30T03:15:34;102385.06;;;7.74;100.00
4972;BME280;2501;51.214;6.768;2024-01-30T03:18:03;102397.22;;;7.74;100.00
4972;BME280;2501;51.214;6.768;2024-01-30T03:20:31;102379.75;;;7.73;100.00
4972;BME280;2501;51.214;6.768;2024-01-30T03:23:00;102378.13;;;7.75;100.00
4972;BME280;2501;51.214;6.768;2024-01-30T03:25:29;102386.84;;;7.75;100.00
4972;BME280;2501;51.214;6.768;2024-01-30T03:27:57;102391.94;;;7.72;100.00
4972;BME280;2501;51.214;6.768;2024-01-30T03:30:25;102385.06;;;7.74;100.00
4972;BME280;2501;51.214;6.768;2024-01-30T03:32:56;102385.19;;;7.77;100.00
4972;BME280;2501;51.214;6.768;2024-01-30T03:35:25;102391.25;;;7.76;100.00
4972;BME280;2501;51.214;6.768;2024-01-30T03:37:53;102381.69;;;7.77;100.00
4972;BME280;2501;51.214;6.768;2024-01-30T03:40:22;102386.84;;;7.75;100.00
4972;BME280;2501;51.214;6.768;2024-01-30T03:42:50;102387.81;;;7.77;100.00
4972;BME280;2501;51.214;6.768;2024-01-30T03:45:19;102384.16;;;7.74;100.00
4972;BME280;2501;51.214;6.768;2024-01-30T03:47:47;102375.50;;;7.75;100.00
4972;BME280;2501;51.214;6.768;2024-01-30T03:50:18;102366.63;;;7.71;100.00
4972;BME280;2501;51.214;6.768;2024-01-30T03:52:47;102374.34;;;7.68;100.00
4972;BME280;2501;51.214;6.768;2024-01-30T03:55:15;102376.19;;;7.71;100.00
4972;BME280;2501;51.214;6.768;2024-01-30T03:57:43;102372.47;;;7.65;100.00
4972;BME280;2501;51.214;6.768;2024-01-30T04:00:13;102378.66;;;7.67;100.00
4972;BME280;2501;51.214;6.768;2024-01-30T04:02:45;102378.66;;;7.67;100.00
4972;BME280;2501;51.214;6.768;2024-01-30T04:05:13;102371.66;;;7.66;100.00
4972;BME280;2501;51.214;6.768;2024-01-30T04:07:44;102378.28;;;7.58;100.00
4972;BME280;2501;51.214;6.768;2024-01-30T04:10:13;102372.09;;;7.56;100.00
4972;BME280;2501;51.214;6.768;2024-01-30T04:12:41;102366.19;;;7.60;100.00
4972;BME280;2501;51.214;6.768;2024-01-30T04:15:10;102375.16;;;7.67;100.00
4972;BME280;2501;51.214;6.768;2024-01-30T04:17:39;102372.47;;;7.65;100.00
4972;BME280;2501;51.214;6.768;2024-01-30T04:20:09;102367.25;;;7.65;100.00
4972;BME280;2501;51.214;6.768;2024-01-30T04:22:40;102368.91;;;7.63;100.00
4972;BME280;2501;51.214;6.768;2024-01-30T04:25:11;102362.69;;;7.60;100.00
4972;BME280;2501;51.214;6.768;2024-01-30T04:27:39;102360.91;;;7.59;100.00
4972;BME280;2501;51.214;6.768;2024-01-30T04:30:09;102351.34;;;7.59;100.00
4972;BME280;2501;51.214;6.768;2024-01-30T04:32:38;102352.41;;;7.64;100.00
4972;BME280;2501;51.214;6.768;2024-01-30T04:35:06;102351.59;;;7.65;100.00
4972;BME280;2501;51.214;6.768;2024-01-30T04:37:35;102352.47;;;7.66;100.00
4972;BME280;2501;51.214;6.768;2024-01-30T04:40:05;102355.03;;;7.64;100.00
4972;BME280;2501;51.214;6.768;2024-01-30T04:42:36;102361.00;;;7.62;100.00
4972;BME280;2501;51.214;6.768;2024-01-30T04:45:06;102362.03;;;7.65;100.00
4972;BME280;2501;51.214;6.768;2024-01-30T04:47:35;102355.84;;;7.63;100.00
4972;BME280;2501;51.214;6.768;2024-01-30T04:50:05;102361.06;;;7.63;100.00
4972;BME280;2501;51.214;6.768;2024-01-30T04:52:34;102362.69;;;7.60;100.00
4972;BME280;2501;51.214;6.768;2024-01-30T04:55:03;102363.56;;;7.60;100.00
4972;BME280;2501;51.214;6.768;2024-01-30T04:57:31;102350.38;;;7.57;100.00
4972;BME280;2501;51.214;6.768;2024-01-30T05:00:03;102355.75;;;7.60;100.00
4972;BME280;2501;51.214;6.768;2024-01-30T05:02:34;102353.06;;;7.59;100.00
4972;BME280;2501;51.214;6.768;2024-01-30T05:05:02;102359.03;;;7.56;100.00
4972;BME280;2501;51.214;6.768;2024-01-30T05:07:31;102356.50;;;7.58;100.00
4972;BME280;2501;51.214;6.768;2024-01-30T05:09:59;102361.06;;;7.63;100.00
4972;BME280;2501;51.214;6.768;2024-01-30T05:12:28;102354.78;;;7.58;100.00
4972;BME280;2501;51.214;6.768;2024-01-30T05:14:57;102350.31;;;7.56;100.00
4972;BME280;2501;51.214;6.768;2024-01-30T05:17:28;102354.63;;;7.55;100.00
4972;BME280;2501;51.214;6.768;2024-01-30T05:20:01;102349.22;;;7.51;100.00
4972;BME280;2501;51.214;6.768;2024-01-30T05:22:56;102344.81;;;7.50;100.00
4972;BME280;2501;51.214;6.768;2024-01-30T05:25:33;102346.53;;;7.49;100.00
4972;BME280;2501;51.214;6.768;2024-01-30T05:28:02;102347.22;;;7.45;100.00
4972;BME280;2501;51.214;6.768;2024-01-30T05:30:33;102348.25;;;7.49;100.00
4972;BME280;2501;51.214;6.768;2024-01-30T05:33:04;102339.59;;;7.50;100.00
4972;BME280;2501;51.214;6.768;2024-01-30T05:35:34;102340.28;;;7.46;100.00
4972;BME280;2501;51.214;6.768;2024-01-30T05:38:00;102342.84;;;7.44;100.00
4972;BME280;2501;51.214;6.768;2024-01-30T05:40:28;102343.53;;;7.40;100.00
4972;BME280;2501;51.214;6.768;2024-01-30T05:42:57;102345.19;;;7.38;100.00
4972;BME280;2501;51.214;6.768;2024-01-30T05:45:28;102338.91;;;7.34;100.00
4972;BME280;2501;51.214;6.768;2024-01-30T05:48:09;102343.38;;;7.37;100.00
4972;BME280;2501;51.214;6.768;2024-01-30T05:50:38;102343.31;;;7.36;100.00
4972;BME280;2501;51.214;6.768;2024-01-30T05:53:06;102343.19;;;7.32;100.00
4972;BME280;2501;51.214;6.768;2024-01-30T05:55:37;102344.00;;;7.31;100.00
4972;BME280;2501;51.214;6.768;2024-01-30T05:58:06;102337.06;;;7.32;100.00
4972;BME280;2501;51.214;6.768;2024-01-30T06:00:34;102342.13;;;7.29;100.00
4972;BME280;2501;51.214;6.768;2024-01-30T06:03:03;102342.28;;;7.32;100.00
4972;BME280;2501;51.214;6.768;2024-01-30T06:05:34;102337.81;;;7.29;100.00
4972;BME280;2501;51.214;6.768;2024-01-30T06:08:03;102343.09;;;7.31;100.00
4972;BME280;2501;51.214;6.768;2024-01-30T06:10:32;102346.59;;;7.31;100.00
4972;BME280;2501;51.214;6.768;2024-01-30T06:13:00;102346.00;;;7.37;100.00
4972;BME280;2501;51.214;6.768;2024-01-30T06:15:29;102338.09;;;7.36;100.00
4972;BME280;2501;51.214;6.768;2024-01-30T06:17:58;102338.16;;;7.37;100.00
4972;BME280;2501;51.214;6.768;2024-01-30T06:20:26;102338.09;;;7.36;100.00
4972;BME280;2501;51.214;6.768;2024-01-30T06:22:57;102335.69;;;7.59;100.00
4972;BME280;2501;51.214;6.768;2024-01-30T06:25:26;102337.03;;;7.51;100.00
4972;BME280;2501;51.214;6.768;2024-01-30T06:27:54;102325.78;;;7.52;100.00
4972;BME280;2501;51.214;6.768;2024-01-30T06:30:23;102327.34;;;7.49;100.00
4972;BME280;2501;51.214;6.768;2024-01-30T06:32:51;102326.53;;;7.50;100.00
4972;BME280;2501;51.214;6.768;2024-01-30T06:35:20;102319.88;;;7.56;100.00
4972;BME280;2501;51.214;6.768;2024-01-30T06:37:48;102312.66;;;7.51;100.00
4972;BME280;2501;51.214;6.768;2024-01-30T06:40:19;102313.63;;;7.53;100.00
4972;BME280;2501;51.214;6.768;2024-01-30T06:42:48;102318.16;;;7.57;100.00
4972;BME280;2501;51.214;6.768;2024-01-30T06:45:16;102321.78;;;7.60;100.00
4972;BME280;2501;51.214;6.768;2024-01-30T06:47:45;102324.19;;;7.56;100.00
4972;BME280;2501;51.214;6.768;2024-01-30T06:50:13;102323.38;;;7.57;100.00
4972;BME280;2501;51.214;6.768;2024-01-30T06:52:42;102337.38;;;7.59;100.00
4972;BME280;2501;51.214;6.768;2024-01-30T06:55:10;102342.63;;;7.59;100.00
4972;BME280;2501;51.214;6.768;2024-01-30T06:57:41;102351.41;;;7.61;100.00
4972;BME280;2501;51.214;6.768;2024-01-30T07:00:11;102345.31;;;7.62;100.00
4972;BME280;2501;51.214;6.768;2024-01-30T07:02:40;102355.84;;;7.63;100.00
4972;BME280;2501;51.214;6.768;2024-01-30T07:05:09;102351.44;;;7.62;100.00
4972;BME280;2501;51.214;6.768;2024-01-30T07:07:38;102355.97;;;7.66;100.00
4972;BME280;2501;51.214;6.768;2024-01-30T07:10:08;102345.59;;;7.68;100.00
4972;BME280;2501;51.214;6.768;2024-01-30T07:12:36;102349.25;;;7.72;100.00
4972;BME280;2501;51.214;6.768;2024-01-30T07:15:08;102355.97;;;7.66;100.00
4972;BME280;2501;51.214;6.768;2024-01-30T07:17:37;102338.66;;;7.68;100.00
4972;BME280;2501;51.214;6.768;2024-01-30T07:20:07;102345.69;;;7.69;100.00
4972;BME280;2501;51.214;6.768;2024-01-30T07:22:36;102352.75;;;7.72;100.00
4972;BME280;2501;51.214;6.768;2024-01-30T07:25:05;102351.25;;;7.77;100.00
4972;BME280;2501;51.214;6.768;2024-01-30T07:27:34;102346.63;;;7.72;100.00
4972;BME280;2501;51.214;6.768;2024-01-30T07:30:03;102360.59;;;7.72;100.00
4972;BME280;2501;51.214;6.768;2024-01-30T07:32:35;102353.84;;;7.77;100.00
4972;BME280;2501;51.214;6.768;2024-01-30T07:35:04;102356.41;;;7.76;100.00
4972;BME280;2501;51.214;6.768;2024-01-30T07:37:32;102355.56;;;7.77;100.00
4972;BME280;2501;51.214;6.768;2024-01-30T07:40:01;102354.91;;;7.82;100.00
4972;BME280;2501;51.214;6.768;2024-01-30T07:42:30;102359.53;;;7.88;100.00
4972;BME280;2501;51.214;6.768;2024-01-30T07:44:59;102356.09;;;7.89;100.00
4972;BME280;2501;51.214;6.768;2024-01-30T07:47:28;102364.75;;;7.88;100.00
4972;BME280;2501;51.214;6.768;2024-01-30T07:49:59;102368.38;;;7.91;100.00
4972;BME280;2501;51.214;6.768;2024-01-30T07:52:28;102376.16;;;7.90;100.00
4972;BME280;2501;51.214;6.768;2024-01-30T07:54:57;102378.97;;;7.94;100.00
4972;BME280;2501;51.214;6.768;2024-01-30T07:57:26;102384.13;;;7.93;100.00
4972;BME280;2501;51.214;6.768;2024-01-30T07:59:54;102371.06;;;7.93;100.00
4972;BME280;2501;51.214;6.768;2024-01-30T08:02:23;102381.50;;;7.93;100.00
4972;BME280;2501;51.214;6.768;2024-01-30T08:04:52;102384.44;;;8.00;100.00
4972;BME280;2501;51.214;6.768;2024-01-30T08:07:23;102372.94;;;7.97;100.00
4972;BME280;2501;51.214;6.768;2024-01-30T08:09:51;102379.78;;;7.93;100.00
4972;BME280;2501;51.214;6.768;2024-01-30T08:12:20;102378.38;;;8.01;100.00
4972;BME280;2501;51.214;6.768;2024-01-30T08:14:48;102386.28;;;8.03;100.00
4972;BME280;2501;51.214;6.768;2024-01-30T08:17:17;102389.66;;;8.00;100.00
4972;BME280;2501;51.214;6.768;2024-01-30T08:19:45;102388.84;;;8.01;100.00
4972;BME280;2501;51.214;6.768;2024-01-30T08:22:14;102393.16;;;8.01;100.00
4972;BME280;2501;51.214;6.768;2024-01-30T08:24:45;102398.81;;;8.10;100.00
4972;BME280;2501;51.214;6.768;2024-01-30T08:27:13;102396.06;;;8.07;100.00
4972;BME280;2501;51.214;6.768;2024-01-30T08:29:42;102397.00;;;8.09;100.00
4972;BME280;2501;51.214;6.768;2024-01-30T08:32:10;102400.50;;;8.10;100.00
4972;BME280;2501;51.214;6.768;2024-01-30T08:34:39;102399.69;;;8.11;100.00
4972;BME280;2501;51.214;6.768;2024-01-30T08:37:07;102399.84;;;8.15;100.00
4972;BME280;2501;51.214;6.768;2024-01-30T08:39:36;102394.91;;;8.21;100.00
4972;BME280;2501;51.214;6.768;2024-01-30T08:42:07;102396.00;;;8.26;100.00
4972;BME280;2501;51.214;6.768;2024-01-30T08:44:35;102398.41;;;8.22;100.00
4972;BME280;2501;51.214;6.768;2024-01-30T08:47:04;102404.66;;;8.25;100.00
4972;BME280;2501;51.214;6.768;2024-01-30T08:49:33;102410.03;;;8.28;100.00
4972;BME280;2501;51.214;6.768;2024-01-30T08:52:01;102410.03;;;8.28;100.00
4972;BME280;2501;51.214;6.768;2024-01-30T08:54:31;102406.72;;;8.32;100.00
4972;BME280;2501;51.214;6.768;2024-01-30T08:57:00;102408.38;;;8.30;100.00
4972;BME280;2501;51.214;6.768;2024-01-30T08:59:32;102418.13;;;8.34;100.00
4972;BME280;2501;51.214;6.768;2024-01-30T09:02:00;102420.13;;;8.40;100.00
4972;BME280;2501;51.214;6.768;2024-01-30T09:04:29;102419.97;;;8.37;100.00
4972;BME280;2501;51.214;6.768;2024-01-30T09:06:58;102429.94;;;8.46;100.00
4972;BME280;2501;51.214;6.768;2024-01-30T09:09:26;102426.50;;;8.47;100.00
4972;BME280;2501;51.214;6.768;2024-01-30T09:11:55;102426.72;;;8.53;100.00
4972;BME280;2501;51.214;6.768;2024-01-30T09:14:27;102424.25;;;8.56;100.00
4972;BME280;2501;51.214;6.768;2024-01-30T09:16:58;102423.47;;;8.58;100.00
4972;BME280;2501;51.214;6.768;2024-01-30T09:19:28;102426.28;;;8.63;100.00
4972;BME280;2501;51.214;6.768;2024-01-30T09:22:00;102425.94;;;8.76;100.00
4972;BME280;2501;51.214;6.768;2024-01-30T09:24:29;102435.59;;;8.99;100.00
4972;BME280;2501;51.214;6.768;2024-01-30T09:26:57;102433.97;;;9.03;100.00
4972;BME280;2501;51.214;6.768;2024-01-30T09:29:26;102429.28;;;8.94;100.00
4972;BME280;2501;51.214;6.768;2024-01-30T09:31:54;102435.53;;;8.98;100.00
4972;BME280;2501;51.214;6.768;2024-01-30T09:34:26;102440.88;;;9.01;100.00
4972;BME280;2501;51.214;6.768;2024-01-30T09:36:54;102442.59;;;9.00;100.00
4972;BME280;2501;51.214;6.768;2024-01-30T09:39:22;102444.88;;;9.14;100.00
4972;BME280;2501;51.214;6.768;2024-01-30T09:41:57;102448.25;;;9.11;100.00
4972;BME280;2501;51.214;6.768;2024-01-30T09:44:29;102443.31;;;9.19;100.00
4972;BME280;2501;51.214;6.768;2024-01-30T09:46:58;102436.31;;;9.18;100.00
4972;BME280;2501;51.214;6.768;2024-01-30T09:49:32;102433.69;;;9.18;100.00
4972;BME280;2501;51.214;6.768;2024-01-30T09:52:01;102443.44;;;9.22;100.00
4972;BME280;2501;51.214;6.768;2024-01-30T09:54:31;102440.69;;;9.19;100.00
4972;BME280;2501;51.214;6.768;2024-01-30T09:56:59;102440.53;;;9.14;100.00
4972;BME280;2501;51.214;6.768;2024-01-30T09:59:28;102438.19;;;9.22;100.00
4972;BME280;2501;51.214;6.768;2024-01-30T10:01:56;102441.81;;;9.25;100.00
4972;BME280;2501;51.214;6.768;2024-01-30T10:04:25;102441.75;;;9.24;100.00
4972;BME280;2501;51.214;6.768;2024-01-30T10:06:56;102450.44;;;9.23;100.00
4972;BME280;2501;51.214;6.768;2024-01-30T10:09:25;102446.16;;;9.25;100.00
4972;BME280;2501;51.214;6.768;2024-01-30T10:11:54;102449.16;;;9.34;100.00
4972;BME280;2501;51.214;6.768;2024-01-30T10:14:22;102448.47;;;9.39;100.00
4972;BME280;2501;51.214;6.768;2024-01-30T10:16:51;102445.78;;;9.38;100.00
4972;BME280;2501;51.214;6.768;2024-01-30T10:19:19;102447.94;;;9.48;100.00
4972;BME280;2501;51.214;6.768;2024-01-30T10:21:48;102448.00;;;9.50;100.00
4972;BME280;2501;51.214;6.768;2024-01-30T10:24:24;102449.84;;;9.52;100.00
4972;BME280;2501;51.214;6.768;2024-01-30T10:26:53;102446.34;;;9.53;100.00
4972;BME280;2501;51.214;6.768;2024-01-30T10:29:21;102446.84;;;9.65;100.00
4972;BME280;2501;51.214;6.768;2024-01-30T10:31:58;102445.81;;;9.62;100.00
4972;BME280;2501;51.214;6.768;2024-01-30T10:34:26;102433.03;;;9.71;100.00
4972;BME280;2501;51.214;6.768;2024-01-30T10:37:03;102440.41;;;9.57;100.00
4972;BME280;2501;51.214;6.768;2024-01-30T10:39:41;102435.28;;;9.60;100.00
4972;BME280;2501;51.214;6.768;2024-01-30T10:42:11;102435.13;;;9.80;100.00
4972;BME280;2501;51.214;6.768;2024-01-30T10:44:48;102432.75;;;9.87;100.00
4972;BME280;2501;51.214;6.768;2024-01-30T10:47:26;102434.09;;;10.00;100.00
4972;BME280;2501;51.214;6.768;2024-01-30T10:49:55;102436.84;;;10.03;100.00
4972;BME280;2501;51.214;6.768;2024-01-30T10:52:24;102437.06;;;10.10;100.00
4972;BME280;2501;51.214;6.768;2024-01-30T10:54:57;102443.28;;;10.12;100.00
4972;BME280;2501;51.214;6.768;2024-01-30T10:57:26;102442.81;;;10.24;100.00
4972;BME280;2501;51.214;6.768;2024-01-30T10:59:57;102433.16;;;10.23;100.00
4972;BME280;2501;51.214;6.768;2024-01-30T11:02:27;102440.31;;;10.27;100.00
4972;BME280;2501;51.214;6.768;2024-01-30T11:04:57;102438.06;;;10.38;100.00
4972;BME280;2501;51.214;6.768;2024-01-30T11:07:28;102444.00;;;10.32;100.00
4972;BME280;2501;51.214;6.768;2024-01-30T11:10:04;102443.81;;;10.28;100.00
4972;BME280;2501;51.214;6.768;2024-01-30T11:12:39;102442.59;;;10.43;100.00
4972;BME280;2501;51.214;6.768;2024-01-30T11:15:12;102446.50;;;10.55;100.00
4972;BME280;2501;51.214;6.768;2024-01-30T11:17:47;102435.69;;;10.45;100.00
4972;BME280;2501;51.214;6.768;2024-01-30T11:20:20;102442.03;;;10.52;100.00
4972;BME280;2501;51.214;6.768;2024-01-30T11:22:51;102444.94;;;10.61;100.00
4972;BME280;2501;51.214;6.768;2024-01-30T11:25:23;102446.84;;;10.65;100.00
4972;BME280;2501;51.214;6.768;2024-01-30T11:27:53;102459.84;;;10.62;100.00
4972;BME280;2501;51.214;6.768;2024-01-30T11:30:23;102451.38;;;10.44;100.00
4972;BME280;2501;51.214;6.768;2024-01-30T11:32:59;102448.34;;;10.59;100.00
4972;BME280;2501;51.214;6.768;2024-01-30T11:35:31;102448.06;;;10.50;100.00
4972;BME280;2501;51.214;6.768;2024-01-30T11:38:00;102446.38;;;10.52;100.00
4972;BME280;2501;51.214;6.768;2024-01-30T11:40:33;102440.94;;;10.45;100.00
4972;BME280;2501;51.214;6.768;2024-01-30T11:43:04;102442.50;;;10.40;100.00
4972;BME280;2501;51.214;6.768;2024-01-30T11:45:33;102444.28;;;10.41;100.00
4972;BME280;2501;51.214;6.768;2024-01-30T11:48:03;102442.97;;;10.54;100.00
4972;BME280;2501;51.214;6.768;2024-01-30T11:50:33;102450.09;;;10.58;100.00
4972;BME280;2501;51.214;6.768;2024-01-30T11:53:04;102439.91;;;10.67;100.00
4972;BME280;2501;51.214;6.768;2024-01-30T11:55:35;102440.69;;;10.65;100.00
4972;BME280;2501;51.214;6.768;2024-01-30T11:58:04;102440.84;;;10.69;100.00
4972;BME280;2501;51.214;6.768;2024-01-30T12:00:33;102452.03;;;10.91;100.00
4972;BME280;2501;51.214;6.768;2024-01-30T12:03:01;102452.22;;;10.97;100.00
4972;BME280;2501;51.214;6.768;2024-01-30T12:05:32;102435.41;;;10.90;100.00
4972;BME280;2501;51.214;6.768;2024-01-30T12:08:01;102434.53;;;10.91;100.00
4972;BME280;2501;51.214;6.768;2024-01-30T12:10:29;102439.88;;;10.94;100.00
4972;BME280;2501;51.214;6.768;2024-01-30T12:13:01;102437.56;;;11.03;100.00
4972;BME280;2501;51.214;6.768;2024-01-30T12:15:30;102443.59;;;11.01;100.00
4972;BME280;2501;51.214;6.768;2024-01-30T12:18:05;102447.22;;;11.04;100.00
4972;BME280;2501;51.214;6.768;2024-01-30T12:20:34;102445.47;;;11.05;100.00
4972;BME280;2501;51.214;6.768;2024-01-30T12:23:03;102435.75;;;11.02;100.00
4972;BME280;2501;51.214;6.768;2024-01-30T12:25:31;102429.63;;;11.02;100.00
4972;BME280;2501;51.214;6.768;2024-01-30T12:28:03;102437.81;;;11.12;100.00
4972;BME280;2501;51.214;6.768;2024-01-30T12:30:34;102431.66;;;11.12;100.00
4972;BME280;2501;51.214;6.768;2024-01-30T12:33:03;102425.72;;;11.18;100.00
4972;BME280;2501;51.214;6.768;2024-01-30T12:35:34;102424.88;;;11.19;100.00
4972;BME280;2501;51.214;6.768;2024-01-30T12:38:03;102424.03;;;11.20;100.00
4972;BME280;2501;51.214;6.768;2024-01-30T12:40:33;102422.44;;;11.25;100.00
4972;BME280;2501;51.214;6.768;2024-01-30T12:43:04;102425.47;;;11.38;100.00
4972;BME280;2501;51.214;6.768;2024-01-30T12:45:33;102425.88;;;11.52;100.00
4972;BME280;2501;51.214;6.768;2024-01-30T12:48:02;102429.44;;;11.54;100.00
4972;BME280;2501;51.214;6.768;2024-01-30T12:50:30;102433.09;;;11.59;100.00
4972;BME280;2501;51.214;6.768;2024-01-30T12:52:59;102433.81;;;11.85;100.00
4972;BME280;2501;51.214;6.768;2024-01-30T12:55:28;102434.91;;;11.92;100.00
4972;BME280;2501;51.214;6.768;2024-01-30T12:57:56;102430.13;;;11.78;100.00
4972;BME280;2501;51.214;6.768;2024-01-30T13:00:27;102429.72;;;11.95;100.00
4972;BME280;2501;51.214;6.768;2024-01-30T13:02:56;102434.34;;;11.73;100.00
4972;BME280;2501;51.214;6.768;2024-01-30T13:05:24;102440.25;;;11.95;100.00
4972;BME280;2501;51.214;6.768;2024-01-30T13:07:53;102438.06;;;11.80;100.00
4972;BME280;2501;51.214;6.768;2024-01-30T13:10:22;102439.97;;;11.85;100.00
4972;BME280;2501;51.214;6.768;2024-01-30T13:12:51;102440.66;;;12.10;100.00
4972;BME280;2501;51.214;6.768;2024-01-30T13:15:19;102447.28;;;11.66;100.00
4972;BME280;2501;51.214;6.768;2024-01-30T13:17:50;102455.88;;;11.90;100.00
4972;BME280;2501;51.214;6.768;2024-01-30T13:20:19;102455.34;;;11.72;100.00
4972;BME280;2501;51.214;6.768;2024-01-30T13:22:48;102462.94;;;11.91;100.00